Main page
METAR-TAF:

METAR-TAF

Airports :

Cognac – Châteaubernard Air Base

Cognac, France

latitude: 45-40N, longitude: 000-19W, elevation: 30 m

Current weather observation

The report was made 11 minutes ago, at 19:30 UTC
Wind 5 kt from the Northeast
Temperature 29°C
Humidity 40%
Pressure 1015 hPa
Visibility 10 km or more
no clouds below 1500 m and no cumulonimbus

METAR: LFBG 151930Z AUTO 04005KT CAVOK 29/14 Q1015 NOSIG

Time: 21:41 (19:41 UTC)

Forecast

The report was made 5 hours and 41 minutes ago, at 14:00 UTC
Forecast valid from 15 at 15 UTC to 16 at 15 UTC
Wind 5 kt from the Northeast
Visibility 10 km or more
no clouds below 1500 m and no cumulonimbus

TAF: LFBG 151400Z 1515/1615 04005KT CAVOK

Weather observations and forecasts of more than 4000 airports (METAR and TAF reports).

The available stations are represented by yellow and red dots on the map.

Hover mouse over dot to see the name of the station.

Then click to see weather observations and forecasts.

To change the map : click on the green buttons with a black cross to zoom in, on the green button with a dash to zoom out, or on the green arrows for adjacent maps.


METAR-TAF: